Time;durP1;ratioP1;P1;durP2;ratioP2;P2;SDS_P1;SDS_P2;PMS_P1;PMS_P2;Temp;Humidity;BMP_temperature;BMP_pressure;BME280_temperature;BME280_humidity;BME280_pressure;Samples;Min_cycle;Max_cycle;Signal;HPM_P1;HPM_P2
2022/01/23 00:02:15;;;;;;;13.88;4.90;;;5.60;99.90;;;;;;4946136;29;20491;-75
2022/01/23 00:04:42;;;;;;;13.73;4.57;;;5.60;99.90;;;;;;4947359;29;20051;-77
2022/01/23 00:07:12;;;;;;;13.95;4.70;;;5.70;99.90;;;;;;4927828;29;20058;-77
2022/01/23 00:09:38;;;;;;;14.50;4.65;;;5.60;99.90;;;;;;4946747;29;20059;-78
2022/01/23 00:12:10;;;;;;;12.95;4.95;;;5.60;99.90;;;;;;4945480;29;20051;-78
2022/01/23 00:17:20;;;;;;;15.02;5.00;;;5.50;99.90;;;;;;4945773;29;20055;-79
2022/01/23 00:19:56;;;;;;;12.73;4.53;;;5.50;99.90;;;;;;4948190;28;20050;-78
2022/01/23 00:22:28;;;;;;;13.07;4.53;;;5.50;99.90;;;;;;4948065;29;20040;-74
2022/01/23 00:30:28;;;;;;;13.32;4.45;;;5.50;99.90;;;;;;4948626;29;20058;-73
2022/01/23 00:33:03;;;;;;;11.98;4.47;;;5.50;99.90;;;;;;4948208;29;20044;-78
2022/01/23 00:35:31;;;;;;;14.57;4.72;;;5.50;99.90;;;;;;4940270;29;20048;-73
2022/01/23 00:37:58;;;;;;;12.82;5.05;;;5.50;99.90;;;;;;4947977;29;20040;-78
2022/01/23 00:40:25;;;;;;;9.82;4.90;;;5.50;99.90;;;;;;4951715;29;20083;-73
2022/01/23 00:42:54;;;;;;;14.13;4.68;;;5.50;99.90;;;;;;4960893;29;20063;-72
2022/01/23 00:45:32;;;;;;;10.23;4.43;;;5.70;99.90;;;;;;4959089;29;20102;-77
2022/01/23 00:48:05;;;;;;;14.63;5.03;;;5.50;99.90;;;;;;4943760;29;20126;-77
2022/01/23 00:50:42;;;;;;;10.23;4.40;;;5.50;99.90;;;;;;4941761;29;20082;-77
2022/01/23 00:53:10;;;;;;;13.30;4.68;;;5.50;99.90;;;;;;4938905;29;20047;-74
2022/01/23 00:55:38;;;;;;;10.57;4.50;;;5.90;99.90;;;;;;4939177;29;20512;-79
2022/01/23 00:58:03;;;;;;;12.60;4.20;;;5.80;99.90;;;;;;4939280;29;20040;-79
2022/01/23 01:00:29;;;;;;;15.35;4.22;;;5.50;99.90;;;;;;4939144;29;20056;-79
2022/01/23 01:02:55;;;;;;;11.55;4.05;;;5.50;99.90;;;;;;4938635;29;20508;-79
2022/01/23 01:05:21;;;;;;;12.73;4.57;;;5.50;99.90;;;;;;4921230;29;20086;-79
2022/01/23 01:07:47;;;;;;;11.30;4.07;;;6.00;99.90;;;;;;4920998;29;20547;-80
2022/01/23 01:10:24;;;;;;;8.25;3.60;;;6.10;99.90;;;;;;4938487;29;20048;-74
2022/01/23 01:12:52;;;;;;;14.75;4.10;;;5.50;99.90;;;;;;4921723;29;20048;-79
2022/01/23 01:31:38;;;;;;;9.18;3.10;;;5.60;99.90;;;;;;4900287;29;20059;-77
2022/01/23 01:34:09;;;;;;;8.63;3.10;;;5.60;99.90;;;;;;4917099;29;20773;-79
2022/01/23 01:36:47;;;;;;;12.13;3.40;;;5.50;99.90;;;;;;4878677;29;20085;-79
2022/01/23 01:39:18;;;;;;;9.25;3.50;;;5.50;99.90;;;;;;4878228;29;20802;-74
2022/01/23 01:41:45;;;;;;;9.50;3.57;;;5.60;99.90;;;;;;4863498;29;20053;-78
2022/01/23 01:44:11;;;;;;;11.00;3.58;;;5.50;99.90;;;;;;4880548;29;20070;-79
2022/01/23 01:46:37;;;;;;;8.63;3.40;;;5.50;99.90;;;;;;4900797;29;20127;-79
2022/01/23 01:49:03;;;;;;;10.77;3.85;;;5.50;99.90;;;;;;4900809;29;20094;-77
2022/01/23 01:51:31;;;;;;;14.15;4.20;;;5.50;99.90;;;;;;4916585;29;20087;-79
2022/01/23 01:54:05;;;;;;;10.48;3.90;;;5.90;99.90;;;;;;4900843;29;20131;-78
2022/01/23 01:56:38;;;;;;;14.85;3.90;;;6.10;99.90;;;;;;4893753;29;20541;-79
2022/01/23 01:59:19;;;;;;;10.95;4.13;;;5.50;99.90;;;;;;4879049;29;20088;-78
2022/01/23 02:12:25;;;;;;;10.20;3.67;;;5.50;99.90;;;;;;4975476;28;20133;-77
2022/01/23 02:15:26;;;;;;;14.27;4.53;;;5.50;99.90;;;;;;4975307;28;20057;-73
2022/01/23 02:18:01;;;;;;;10.45;4.18;;;5.50;99.90;;;;;;4975674;28;20061;-75
2022/01/23 02:23:32;;;;;;;12.25;4.20;;;5.50;99.90;;;;;;4975918;28;20137;-76
2022/01/23 02:50:45;;;;;;;10.23;3.45;;;5.40;99.90;;;;;;4957730;28;20053;-78
2022/01/23 02:56:01;;;;;;;10.23;3.85;;;5.40;99.90;;;;;;4975071;28;20055;-78
2022/01/23 02:58:51;;;;;;;10.65;4.05;;;5.40;99.90;;;;;;4974685;28;20049;-78
2022/01/23 03:01:19;;;;;;;9.18;3.25;;;5.40;99.90;;;;;;4975053;28;20105;-79
2022/01/23 03:03:48;;;;;;;8.95;3.15;;;5.40;99.90;;;;;;4957558;28;20109;-78
2022/01/23 03:06:55;;;;;;;11.18;3.47;;;5.40;99.90;;;;;;4975075;28;20050;-79
2022/01/23 03:12:09;;;;;;;9.13;3.25;;;5.40;99.90;;;;;;4957052;28;20134;-78
2022/01/23 03:14:46;;;;;;;8.90;3.35;;;5.40;99.90;;;;;;4957253;28;20059;-77
2022/01/23 03:28:27;;;;;;;10.25;3.35;;;5.40;99.90;;;;;;4957020;28;20061;-79
2022/01/23 03:33:39;;;;;;;10.45;3.47;;;5.50;99.90;;;;;;4956785;28;20047;-79
2022/01/23 03:36:05;;;;;;;9.88;3.20;;;5.40;99.90;;;;;;4956610;28;20197;-76
2022/01/23 03:38:31;;;;;;;8.20;3.30;;;5.40;99.90;;;;;;4974407;28;20050;-74
2022/01/23 03:40:57;;;;;;;8.73;3.28;;;5.60;99.90;;;;;;4974308;28;20481;-77
2022/01/23 03:43:32;;;;;;;9.60;3.42;;;5.30;99.90;;;;;;4956989;28;20105;-77
2022/01/23 03:51:12;;;;;;;9.40;3.28;;;5.40;99.90;;;;;;4974551;28;20414;-79
2022/01/23 03:53:38;;;;;;;9.15;3.75;;;5.40;99.90;;;;;;4956348;28;20117;-79
2022/01/23 03:56:05;;;;;;;7.97;3.03;;;5.40;99.90;;;;;;4956871;28;20055;-79
2022/01/23 03:58:31;;;;;;;10.45;3.88;;;5.40;99.90;;;;;;4956854;28;20051;-80
2022/01/23 04:00:57;;;;;;;11.32;3.83;;;5.40;99.90;;;;;;4974235;28;20038;-78
2022/01/23 04:03:23;;;;;;;9.80;3.60;;;5.40;99.90;;;;;;4977511;28;20058;-70
2022/01/23 04:05:50;;;;;;;11.85;3.80;;;5.40;99.90;;;;;;4974256;28;20050;-72
2022/01/23 04:08:16;;;;;;;11.38;3.20;;;5.40;99.90;;;;;;4973679;28;20051;-72
2022/01/23 04:10:43;;;;;;;9.80;3.03;;;5.40;99.90;;;;;;4974091;28;20125;-71
2022/01/23 04:15:51;;;;;;;8.48;2.97;;;5.40;99.90;;;;;;4974232;28;20105;-73
2022/01/23 05:01:45;;;;;;;10.23;4.80;;;5.40;99.90;;;;;;4898034;29;20123;-76
2022/01/23 05:06:48;;;;;;;10.15;3.90;;;5.40;99.90;;;;;;4959187;28;20047;-75
2022/01/23 05:09:14;;;;;;;14.48;4.03;;;5.40;99.90;;;;;;4977116;28;20061;-78
2022/01/23 05:11:51;;;;;;;10.65;3.55;;;5.40;99.90;;;;;;4977319;28;20102;-79
2022/01/23 05:14:27;;;;;;;12.70;3.80;;;5.50;99.90;;;;;;4977267;28;20097;-77
2022/01/23 05:16:53;;;;;;;11.40;4.30;;;5.40;99.90;;;;;;4976826;28;20126;-78
2022/01/23 05:19:19;;;;;;;10.98;3.80;;;5.40;99.90;;;;;;4959540;28;20129;-74
2022/01/23 05:24:11;;;;;;;9.65;3.92;;;5.40;99.90;;;;;;4977022;28;20051;-73
2022/01/23 05:26:43;;;;;;;9.32;3.78;;;5.40;99.90;;;;;;4976664;28;20054;-74
2022/01/23 05:29:10;;;;;;;10.18;3.63;;;5.40;99.90;;;;;;4976876;28;20069;-79
2022/01/23 05:31:36;;;;;;;15.02;4.18;;;5.70;99.90;;;;;;4959202;28;20062;-78
2022/01/23 05:34:02;;;;;;;9.85;3.90;;;5.30;99.90;;;;;;4976716;28;20046;-76
2022/01/23 05:36:28;;;;;;;14.00;5.20;;;5.30;99.90;;;;;;4958923;28;20051;-80
2022/01/23 05:38:53;;;;;;;12.50;5.18;;;5.20;99.90;;;;;;4976272;28;20089;-77
2022/01/23 05:41:19;;;;;;;13.35;4.55;;;5.20;99.90;;;;;;4958995;28;20455;-80
2022/01/23 05:43:45;;;;;;;14.50;4.78;;;5.10;99.90;;;;;;4976694;28;20046;-76
2022/01/23 05:46:11;;;;;;;12.88;4.57;;;5.10;99.90;;;;;;4976252;28;20447;-75
2022/01/23 05:48:36;;;;;;;12.68;5.00;;;5.30;99.90;;;;;;4976392;28;20046;-78
2022/01/23 05:51:02;;;;;;;12.70;4.47;;;5.00;99.90;;;;;;4959094;28;20483;-77
2022/01/23 05:53:28;;;;;;;13.48;4.22;;;5.00;99.90;;;;;;4976036;28;20035;-76
2022/01/23 05:55:55;;;;;;;10.30;4.25;;;5.00;99.90;;;;;;4976064;28;20407;-75
2022/01/23 05:58:21;;;;;;;12.45;4.32;;;5.00;99.90;;;;;;4976154;28;20047;-72
2022/01/23 06:00:46;;;;;;;11.85;4.90;;;5.00;99.90;;;;;;4958612;28;20545;-80
2022/01/23 06:03:12;;;;;;;15.30;4.85;;;5.00;99.90;;;;;;4958960;28;20055;-76
2022/01/23 06:05:37;;;;;;;11.20;4.47;;;5.00;99.90;;;;;;4958754;28;20117;-79
2022/01/23 06:08:04;;;;;;;12.43;4.68;;;5.00;99.90;;;;;;4958240;28;20505;-77
2022/01/23 06:10:36;;;;;;;12.55;4.68;;;5.00;99.90;;;;;;4958073;28;20057;-79
2022/01/23 06:13:03;;;;;;;12.25;4.55;;;5.10;99.90;;;;;;4975977;28;20076;-77
2022/01/23 06:15:28;;;;;;;12.82;4.82;;;5.10;99.90;;;;;;4975477;28;20376;-79
2022/01/23 06:17:55;;;;;;;12.50;4.80;;;5.10;99.90;;;;;;4941750;28;20055;-78
2022/01/23 06:20:21;;;;;;;11.65;4.13;;;5.10;99.90;;;;;;4975892;28;20129;-79
2022/01/23 06:22:47;;;;;;;13.48;5.00;;;5.10;99.90;;;;;;4976133;28;20167;-78
2022/01/23 06:25:14;;;;;;;12.77;4.95;;;5.10;99.90;;;;;;4975507;28;20105;-80
2022/01/23 06:27:40;;;;;;;11.80;4.75;;;5.10;99.90;;;;;;4975449;28;20506;-75
2022/01/23 06:30:06;;;;;;;13.95;4.50;;;5.10;99.90;;;;;;4975622;28;20051;-80
2022/01/23 06:32:33;;;;;;;12.70;4.80;;;5.10;99.90;;;;;;4975560;28;20046;-80
2022/01/23 06:34:59;;;;;;;9.95;4.30;;;5.10;99.90;;;;;;4975640;28;20046;-76
2022/01/23 06:37:24;;;;;;;10.38;4.32;;;5.00;99.90;;;;;;4975636;28;20407;-80
2022/01/23 06:39:51;;;;;;;9.02;3.58;;;5.00;99.90;;;;;;4957600;28;20046;-76
2022/01/23 06:42:16;;;;;;;9.43;3.70;;;4.90;99.90;;;;;;4975364;28;20435;-72
2022/01/23 06:44:42;;;;;;;11.52;4.30;;;4.90;99.90;;;;;;4975200;28;20050;-73
2022/01/23 06:47:07;;;;;;;9.50;3.63;;;4.90;99.90;;;;;;4975424;28;20042;-79
2022/01/23 06:49:33;;;;;;;8.63;3.65;;;4.80;99.90;;;;;;4957014;28;20439;-78
2022/01/23 06:51:59;;;;;;;13.70;3.80;;;5.20;99.90;;;;;;4957901;28;20368;-78
2022/01/23 06:54:26;;;;;;;11.00;3.33;;;5.20;99.90;;;;;;4975293;28;20046;-80
2022/01/23 06:56:52;;;;;;;11.20;3.85;;;4.80;99.90;;;;;;4956903;28;20054;-78
2022/01/23 06:59:18;;;;;;;7.70;3.40;;;4.70;99.90;;;;;;4975175;28;20138;-76
2022/01/23 07:01:43;;;;;;;10.63;4.03;;;5.00;99.90;;;;;;4975222;28;20074;-73
2022/01/23 07:04:09;;;;;;;10.73;3.33;;;4.80;99.90;;;;;;4957148;28;20421;-80
2022/01/23 07:06:35;;;;;;;9.75;3.38;;;4.80;99.90;;;;;;4974977;28;20035;-77
2022/01/23 07:09:01;;;;;;;10.00;3.63;;;4.80;99.90;;;;;;4957115;28;20120;-73
2022/01/23 07:11:26;;;;;;;9.80;3.70;;;4.80;99.90;;;;;;4957304;28;20058;-78
2022/01/23 07:13:52;;;;;;;13.20;2.85;;;4.80;99.90;;;;;;4956881;28;20502;-72
2022/01/23 07:16:17;;;;;;;11.90;3.30;;;4.80;99.90;;;;;;4957392;28;20410;-77
2022/01/23 07:18:43;;;;;;;8.50;3.40;;;4.80;99.90;;;;;;4974612;28;20058;-72
2022/01/23 07:21:09;;;;;;;7.97;3.13;;;4.80;99.90;;;;;;4974631;28;20483;-74
2022/01/23 07:23:34;;;;;;;8.65;2.72;;;4.70;99.90;;;;;;4956193;28;20051;-72
2022/01/23 07:26:00;;;;;;;7.53;2.45;;;4.70;99.90;;;;;;4974484;28;20089;-72
2022/01/23 07:28:36;;;;;;;8.98;3.08;;;4.70;99.90;;;;;;4974053;28;20094;-72
2022/01/23 07:31:05;;;;;;;8.75;3.20;;;4.70;99.90;;;;;;4956998;28;20514;-71
2022/01/23 07:33:33;;;;;;;8.13;3.08;;;4.70;99.90;;;;;;4974410;28;20442;-78
2022/01/23 07:35:59;;;;;;;10.40;3.15;;;4.70;99.90;;;;;;4974306;28;20490;-70
2022/01/23 07:38:24;;;;;;;8.85;2.78;;;4.70;99.90;;;;;;4974240;28;20050;-72
2022/01/23 07:40:50;;;;;;;8.27;2.70;;;4.70;99.90;;;;;;4956768;28;20054;-76
2022/01/23 07:43:16;;;;;;;10.45;3.00;;;4.80;99.90;;;;;;4974035;28;20045;-78
2022/01/23 07:45:43;;;;;;;8.32;2.55;;;4.80;99.90;;;;;;4956856;28;20081;-71
2022/01/23 07:48:09;;;;;;;9.88;2.50;;;4.80;99.90;;;;;;4974502;28;20042;-74
2022/01/23 07:50:35;;;;;;;9.10;2.58;;;4.90;99.90;;;;;;4974029;28;20055;-74
2022/01/23 07:53:01;;;;;;;9.88;2.88;;;4.90;99.90;;;;;;4973849;28;20046;-71
2022/01/23 07:55:26;;;;;;;8.73;2.42;;;4.90;99.90;;;;;;4974408;28;20050;-76
2022/01/23 07:57:53;;;;;;;8.93;2.72;;;5.00;99.90;;;;;;4974215;28;20418;-73
2022/01/23 08:00:20;;;;;;;8.98;2.08;;;5.00;99.90;;;;;;4973685;28;20054;-72
2022/01/23 08:02:46;;;;;;;11.25;2.85;;;5.00;99.90;;;;;;4974023;28;20142;-71
2022/01/23 08:05:12;;;;;;;9.43;2.42;;;5.10;99.90;;;;;;4956364;28;20055;-75
2022/01/23 08:07:38;;;;;;;9.05;2.50;;;5.10;99.90;;;;;;4974089;28;20050;-70
2022/01/23 08:10:08;;;;;;;7.05;2.35;;;5.10;99.90;;;;;;4956327;28;20582;-70
2022/01/23 08:12:35;;;;;;;7.60;2.60;;;5.10;99.90;;;;;;4974145;28;20047;-79
2022/01/23 08:15:02;;;;;;;9.70;3.22;;;5.20;99.90;;;;;;4973631;28;20414;-75
2022/01/23 08:17:28;;;;;;;10.63;2.50;;;5.20;99.90;;;;;;4956395;28;20043;-74
2022/01/23 08:19:56;;;;;;;7.25;2.38;;;5.20;99.90;;;;;;4973713;28;20086;-77
2022/01/23 08:22:23;;;;;;;9.88;2.25;;;5.20;99.90;;;;;;4973743;28;20086;-80
2022/01/23 08:24:49;;;;;;;7.28;2.53;;;5.30;99.90;;;;;;4946896;29;20043;-78
2022/01/23 08:27:15;;;;;;;10.23;2.72;;;5.30;99.90;;;;;;4939382;29;20134;-72
2022/01/23 08:29:42;;;;;;;9.43;2.92;;;5.30;99.90;;;;;;4942615;29;20059;-75
2022/01/23 08:32:08;;;;;;;12.65;2.72;;;5.30;99.90;;;;;;4966293;28;20055;-75
2022/01/23 08:34:35;;;;;;;7.93;2.50;;;5.40;99.90;;;;;;4969169;28;20063;-69
2022/01/23 08:37:03;;;;;;;7.85;2.45;;;5.40;99.90;;;;;;4974609;29;20104;-76
2022/01/23 08:39:31;;;;;;;10.10;2.50;;;5.50;99.90;;;;;;4974795;28;20122;-81
2022/01/23 08:41:58;;;;;;;7.25;2.35;;;5.50;99.90;;;;;;4950216;29;20047;-78
2022/01/23 08:44:28;;;;;;;7.82;2.33;;;5.50;99.90;;;;;;4950335;29;20076;-69
2022/01/23 08:46:54;;;;;;;6.60;2.00;;;5.50;99.90;;;;;;4946839;29;20043;-73
2022/01/23 08:49:22;;;;;;;7.55;2.38;;;5.50;99.90;;;;;;4949434;29;20044;-76
2022/01/23 08:51:50;;;;;;;9.75;2.40;;;5.60;99.90;;;;;;4947180;29;20415;-70
2022/01/23 08:54:16;;;;;;;7.30;2.28;;;5.60;99.90;;;;;;4946453;29;20063;-71
2022/01/23 08:56:43;;;;;;;9.55;2.40;;;5.90;99.90;;;;;;4949241;29;20040;-71
2022/01/23 08:59:09;;;;;;;8.50;2.60;;;5.60;99.90;;;;;;4946854;29;20065;-72
2022/01/23 09:01:36;;;;;;;7.45;2.00;;;5.70;99.90;;;;;;4947973;29;20055;-70
2022/01/23 09:04:03;;;;;;;8.10;2.60;;;5.70;99.90;;;;;;4928959;29;20487;-72
2022/01/23 09:06:29;;;;;;;7.45;2.60;;;5.70;99.90;;;;;;4947527;29;20051;-72
2022/01/23 09:08:57;;;;;;;8.68;2.65;;;5.80;99.90;;;;;;4950835;29;20050;-70
2022/01/23 09:14:06;;;;;;;6.38;2.45;;;5.80;99.90;;;;;;4957555;29;20145;-74
2022/01/23 09:16:39;;;;;;;10.07;2.65;;;5.90;99.90;;;;;;4957470;29;20106;-71
2022/01/23 09:19:06;;;;;;;9.50;2.70;;;5.90;99.90;;;;;;4957010;29;20047;-71
2022/01/23 09:21:32;;;;;;;9.05;2.53;;;5.90;99.90;;;;;;4957371;29;20079;-71
2022/01/23 09:23:59;;;;;;;6.10;1.70;;;5.90;99.90;;;;;;4957415;29;20200;-71
2022/01/23 09:26:25;;;;;;;7.03;2.17;;;6.00;99.90;;;;;;4940013;29;20043;-78
2022/01/23 09:28:54;;;;;;;6.80;2.20;;;6.00;99.90;;;;;;4957347;29;20051;-74
2022/01/23 09:31:29;;;;;;;10.93;2.63;;;6.10;99.90;;;;;;4957185;29;20377;-71
2022/01/23 09:33:55;;;;;;;6.05;1.83;;;6.10;99.90;;;;;;4956135;29;20036;-74
2022/01/23 09:36:21;;;;;;;6.95;2.35;;;6.10;99.90;;;;;;4956085;29;20106;-70
2022/01/23 09:38:47;;;;;;;9.00;2.58;;;6.10;99.90;;;;;;4956258;29;20078;-73
2022/01/23 09:41:16;;;;;;;6.07;1.90;;;6.20;99.90;;;;;;4954813;29;20059;-69
2022/01/23 09:43:43;;;;;;;6.40;1.88;;;6.20;99.90;;;;;;4956030;29;20094;-71
2022/01/23 09:46:09;;;;;;;8.27;2.45;;;6.60;99.90;;;;;;4955867;29;20130;-71
2022/01/23 09:48:36;;;;;;;8.32;2.47;;;6.60;99.90;;;;;;4938379;29;20555;-72
2022/01/23 09:51:03;;;;;;;7.97;3.35;;;6.30;99.90;;;;;;4954350;28;20046;-74
2022/01/23 09:53:30;;;;;;;7.05;2.40;;;6.40;99.90;;;;;;4939074;29;20054;-72
2022/01/23 09:56:02;;;;;;;7.50;2.08;;;6.40;99.90;;;;;;4938498;29;20058;-71
2022/01/23 09:58:28;;;;;;;6.45;2.13;;;6.50;99.90;;;;;;4938648;29;20491;-72
2022/01/23 10:00:55;;;;;;;7.35;1.98;;;6.50;99.90;;;;;;4955726;29;20075;-73
2022/01/23 10:03:21;;;;;;;5.70;1.70;;;6.60;99.90;;;;;;4955832;29;20067;-74
2022/01/23 10:05:55;;;;;;;5.28;1.80;;;6.60;99.90;;;;;;4937723;29;20078;-73
2022/01/23 10:08:22;;;;;;;9.90;2.25;;;6.60;99.90;;;;;;4955363;29;20063;-73
2022/01/23 10:10:53;;;;;;;5.57;1.85;;;6.70;99.90;;;;;;4938656;29;20078;-72
2022/01/23 10:13:39;;;;;;;4.53;1.70;;;6.70;99.90;;;;;;4955598;29;20518;-72
2022/01/23 10:16:05;;;;;;;5.97;1.83;;;6.70;99.90;;;;;;4955266;29;20550;-72
2022/01/23 10:18:31;;;;;;;5.93;1.50;;;6.70;99.90;;;;;;4938902;29;20411;-69
2022/01/23 10:20:57;;;;;;;6.30;1.40;;;6.80;99.90;;;;;;4955682;29;20043;-69
2022/01/23 10:23:24;;;;;;;4.68;1.48;;;6.80;99.90;;;;;;4956238;29;20078;-69
2022/01/23 10:25:51;;;;;;;4.32;1.38;;;7.00;99.90;;;;;;4953447;29;20044;-67
2022/01/23 10:28:21;;;;;;;3.75;1.40;;;7.10;99.90;;;;;;4937402;29;20079;-71
2022/01/23 10:30:55;;;;;;;4.70;1.20;;;6.90;99.90;;;;;;4936811;29;20040;-71
2022/01/23 10:33:33;;;;;;;7.20;1.55;;;6.90;99.90;;;;;;4926513;29;20094;-69
2022/01/23 10:36:09;;;;;;;5.72;1.45;;;7.00;99.90;;;;;;4937611;29;20063;-72
2022/01/23 10:38:40;;;;;;;5.13;1.65;;;7.00;99.90;;;;;;4936328;29;20044;-71
2022/01/23 10:49:52;;;;;;;3.45;1.08;;;7.20;99.90;;;;;;4936680;29;20455;-69
2022/01/23 10:52:51;;;;;;;3.75;1.13;;;7.30;99.90;;;;;;4940959;28;20086;-73
2022/01/23 10:55:20;;;;;;;3.97;1.23;;;7.30;99.90;;;;;;4930750;29;20039;-71
2022/01/23 10:57:48;;;;;;;3.42;0.88;;;8.00;99.90;;;;;;4949152;28;20484;-73
2022/01/23 11:00:27;;;;;;;2.75;1.00;;;7.40;99.90;;;;;;4950204;28;20488;-69
2022/01/23 11:02:55;;;;;;;2.88;0.82;;;7.40;99.90;;;;;;4929904;29;20040;-71
2022/01/23 11:05:33;;;;;;;3.58;1.00;;;7.40;99.90;;;;;;4948938;28;20055;-70
2022/01/23 11:07:59;;;;;;;2.92;0.75;;;7.40;99.90;;;;;;4948575;28;20102;-69
2022/01/23 11:10:25;;;;;;;3.90;0.80;;;7.90;99.90;;;;;;4955236;28;20055;-69
2022/01/23 11:18:08;;;;;;;2.28;0.73;;;7.50;99.90;;;;;;4932249;28;20043;-71
2022/01/23 11:20:50;;;;;;;0.85;0.50;;;8.30;99.90;;;;;;4949674;28;20127;-70
2022/01/23 11:23:22;;;;;;;0.80;0.40;;;7.50;99.90;;;;;;4947697;28;20049;-72
2022/01/23 11:25:57;;;;;;;0.25;0.25;;;7.50;99.90;;;;;;4948865;28;20166;-72
2022/01/23 11:28:43;;;;;;;2.15;0.45;;;8.40;99.90;;;;;;4933443;28;20059;-73
2022/01/23 11:31:16;;;;;;;1.52;0.30;;;8.50;99.90;;;;;;4931746;29;20082;-76
2022/01/23 11:33:42;;;;;;;0.20;0.20;;;7.60;99.90;;;;;;4947807;28;20051;-72
2022/01/23 11:36:08;;;;;;;0.20;0.20;;;7.60;99.90;;;;;;4949763;28;20035;-74
2022/01/23 11:54:48;;;;;;;0.38;0.32;;;7.40;99.90;;;;;;4944268;29;20055;-74
2022/01/23 11:57:33;;;;;;;2.20;0.80;;;7.40;99.90;;;;;;4945967;29;20050;-71
2022/01/23 12:00:23;;;;;;;3.30;0.50;;;7.40;99.90;;;;;;4945001;29;20049;-74
2022/01/23 12:03:13;;;;;;;1.17;0.50;;;7.30;99.90;;;;;;4848093;29;20061;-71
2022/01/23 12:05:42;;;;;;;0.70;0.20;;;7.30;99.90;;;;;;4848411;29;20093;-76
2022/01/23 12:08:28;;;;;;;0.65;0.38;;;7.20;99.90;;;;;;4832572;29;20053;-74
2022/01/23 12:11:56;;;;;;;0.73;0.40;;;7.20;99.90;;;;;;4848563;29;20050;-72
2022/01/23 12:16:22;;;;;;;1.13;0.45;;;7.20;99.90;;;;;;4837544;29;20083;-76
2022/01/23 12:17:06;;;;;;;0.45;0.40;;;7.20;99.90;;;;;;4851092;29;20064;-75
2022/01/23 12:19:52;;;;;;;1.65;0.30;;;7.10;99.90;;;;;;4852290;29;20113;-76
2022/01/23 12:22:35;;;;;;;0.22;0.22;;;7.10;99.90;;;;;;4828981;29;20515;-69
2022/01/23 12:25:20;;;;;;;0.55;0.35;;;7.10;99.90;;;;;;4845861;29;20122;-70
2022/01/23 12:28:25;;;;;;;0.50;0.40;;;7.00;99.90;;;;;;4839557;29;20058;-70
2022/01/23 12:30:56;;;;;;;0.63;0.50;;;7.10;99.90;;;;;;4788955;29;20174;-72
2022/01/23 12:33:43;;;;;;;0.70;0.40;;;7.00;99.90;;;;;;4803145;29;20055;-68
2022/01/23 12:36:15;;;;;;;1.17;0.50;;;7.00;99.90;;;;;;4792991;29;20304;-75
2022/01/23 12:38:49;;;;;;;0.40;0.30;;;7.00;99.90;;;;;;4795037;29;20059;-72
2022/01/23 12:41:23;;;;;;;0.30;0.30;;;7.00;99.90;;;;;;4839516;29;20054;-74
2022/01/23 12:43:55;;;;;;;0.93;0.43;;;7.00;99.90;;;;;;4839514;29;20065;-74
2022/01/23 12:46:34;;;;;;;0.38;0.38;;;7.50;99.90;;;;;;4839472;29;20081;-74
2022/01/23 12:49:23;;;;;;;1.15;0.45;;;7.00;99.90;;;;;;4839171;29;20069;-76
2022/01/23 12:52:13;;;;;;;0.45;0.30;;;7.00;99.90;;;;;;4836528;29;20392;-75
2022/01/23 12:54:47;;;;;;;0.30;0.30;;;7.00;99.90;;;;;;4805435;29;20112;-73
2022/01/23 12:57:19;;;;;;;0.95;0.40;;;7.00;99.90;;;;;;4805122;29;20073;-72
2022/01/23 12:59:56;;;;;;;0.93;0.45;;;7.00;99.90;;;;;;4820814;29;20062;-72
2022/01/23 13:02:24;;;;;;;0.70;0.40;;;7.00;99.90;;;;;;4821312;29;20054;-72
2022/01/23 13:04:52;;;;;;;0.57;0.43;;;6.90;99.90;;;;;;4850764;29;20417;-69
2022/01/23 13:07:47;;;;;;;0.75;0.45;;;6.90;99.90;;;;;;4876512;29;20129;-72
2022/01/23 13:10:48;;;;;;;2.00;0.50;;;7.60;99.90;;;;;;4860270;29;20181;-72
2022/01/23 13:13:33;;;;;;;0.75;0.45;;;6.90;99.90;;;;;;4860869;29;20131;-71
2022/01/23 13:32:05;;;;;;;1.65;0.50;;;6.70;99.90;;;;;;4853179;29;20454;-72
2022/01/23 13:34:51;;;;;;;0.88;0.35;;;6.70;99.90;;;;;;4846725;29;20050;-72
2022/01/23 13:37:23;;;;;;;2.20;0.70;;;6.70;99.90;;;;;;4845625;29;20514;-74
2022/01/23 13:39:55;;;;;;;0.85;0.50;;;6.70;99.90;;;;;;4844847;29;20069;-73
2022/01/23 13:48:12;;;;;;;1.83;0.60;;;6.70;99.90;;;;;;4859973;29;20064;-72
2022/01/23 14:02:25;;;;;;;2.55;0.70;;;6.70;99.90;;;;;;4859855;29;20430;-73
2022/01/23 14:05:11;;;;;;;0.88;0.45;;;6.70;99.90;;;;;;4845027;29;20170;-73
2022/01/23 14:07:38;;;;;;;1.20;0.60;;;6.70;99.90;;;;;;4863803;29;20482;-72
2022/01/23 14:10:17;;;;;;;1.48;0.60;;;6.70;99.90;;;;;;4953958;29;20488;-71
2022/01/23 14:12:44;;;;;;;1.33;0.60;;;6.70;99.90;;;;;;4956598;29;20050;-71
2022/01/23 14:15:16;;;;;;;2.58;0.80;;;6.70;99.90;;;;;;4956327;29;20039;-71
2022/01/23 14:17:57;;;;;;;3.00;0.98;;;6.60;99.90;;;;;;4956299;29;20122;-72
2022/01/23 14:20:23;;;;;;;4.35;0.90;;;6.70;99.90;;;;;;4956625;29;20094;-73
2022/01/23 14:22:49;;;;;;;1.15;0.60;;;6.60;99.90;;;;;;4956558;29;20496;-70
2022/01/23 14:25:18;;;;;;;2.33;0.68;;;6.60;99.90;;;;;;4955998;29;20046;-71
2022/01/23 14:27:47;;;;;;;5.05;0.70;;;6.60;99.90;;;;;;4955993;29;20499;-72
2022/01/23 14:30:17;;;;;;;2.08;0.80;;;6.60;99.90;;;;;;4956237;29;20046;-69
2022/01/23 14:32:53;;;;;;;4.03;0.70;;;6.50;99.90;;;;;;4956093;29;20629;-72
2022/01/23 14:35:25;;;;;;;1.98;0.68;;;6.50;99.90;;;;;;4956064;29;20051;-72
2022/01/23 14:37:52;;;;;;;;;;;6.50;99.90;;;;;;4935191;29;20142;-72
2022/01/23 14:40:27;;;;;;;1.75;0.68;;;6.50;99.90;;;;;;4955128;28;20000;-71
2022/01/23 14:43:07;;;;;;;1.70;0.73;;;6.50;99.90;;;;;;4956054;29;20051;-72
2022/01/23 14:45:37;;;;;;;1.67;0.75;;;6.50;99.90;;;;;;4949347;29;20043;-72
2022/01/23 14:48:04;;;;;;;3.33;0.95;;;6.40;99.90;;;;;;4936331;29;20054;-72
2022/01/23 14:50:34;;;;;;;2.55;0.65;;;6.40;99.90;;;;;;4934946;29;20131;-72
2022/01/23 14:53:06;;;;;;;3.45;0.80;;;6.40;99.90;;;;;;4952391;29;20047;-71
2022/01/23 14:55:33;;;;;;;3.17;0.75;;;6.40;99.90;;;;;;4938791;29;20078;-72
2022/01/23 14:58:01;;;;;;;1.98;0.65;;;6.40;99.90;;;;;;4955761;29;20098;-74
2022/01/23 15:00:33;;;;;;;3.90;1.00;;;6.40;99.90;;;;;;4955726;29;20567;-74
2022/01/23 15:03:02;;;;;;;5.15;0.80;;;6.40;99.90;;;;;;4935669;29;20387;-72
2022/01/23 15:05:38;;;;;;;1.50;0.75;;;6.30;99.90;;;;;;4955017;29;20119;-73
2022/01/23 15:08:07;;;;;;;2.38;0.82;;;6.80;99.90;;;;;;4955446;29;20046;-72
2022/01/23 15:10:33;;;;;;;2.38;0.80;;;6.30;99.90;;;;;;4935020;29;20106;-72
2022/01/23 15:12:59;;;;;;;2.78;0.80;;;6.40;99.90;;;;;;4952217;29;20505;-75
2022/01/23 15:15:25;;;;;;;2.65;0.70;;;6.30;99.90;;;;;;4955432;29;20043;-74
2022/01/23 15:17:51;;;;;;;3.22;1.02;;;6.30;99.90;;;;;;4955793;29;20094;-73
2022/01/23 15:20:17;;;;;;;5.68;0.70;;;6.30;99.90;;;;;;4954593;29;20054;-70
2022/01/23 15:22:44;;;;;;;4.25;1.23;;;6.30;99.90;;;;;;4935289;29;20095;-77
2022/01/23 15:25:12;;;;;;;2.85;0.90;;;6.30;99.90;;;;;;4936335;29;20507;-77
2022/01/23 15:27:40;;;;;;;2.38;1.05;;;6.30;99.90;;;;;;4931507;29;20044;-76
2022/01/23 15:30:09;;;;;;;2.67;0.93;;;6.30;99.90;;;;;;4941908;29;20114;-77
2022/01/23 15:32:35;;;;;;;3.53;1.20;;;6.20;99.90;;;;;;4933770;29;21914;-75
2022/01/23 15:35:03;;;;;;;3.60;1.20;;;6.20;99.90;;;;;;4943515;29;20051;-72
2022/01/23 15:37:29;;;;;;;3.15;0.90;;;6.20;99.90;;;;;;4924936;29;20481;-71
2022/01/23 15:39:55;;;;;;;5.22;1.40;;;6.20;99.90;;;;;;4934239;29;20385;-74
2022/01/23 15:42:20;;;;;;;4.55;1.80;;;6.60;99.90;;;;;;4937553;29;20063;-73
2022/01/23 15:44:46;;;;;;;3.42;1.30;;;6.20;99.90;;;;;;4914411;29;20048;-78
2022/01/23 15:47:12;;;;;;;4.30;1.58;;;6.20;99.90;;;;;;4933519;29;20051;-73
2022/01/23 15:49:37;;;;;;;3.85;1.38;;;6.20;99.90;;;;;;4933370;29;20047;-74
2022/01/23 15:52:03;;;;;;;3.60;1.30;;;6.20;99.90;;;;;;4915137;29;20405;-71
2022/01/23 15:54:30;;;;;;;4.80;1.60;;;6.80;99.90;;;;;;4932805;29;20408;-72
2022/01/23 15:56:57;;;;;;;4.18;1.65;;;6.10;99.90;;;;;;4944247;29;20050;-74
2022/01/23 15:59:23;;;;;;;4.45;1.67;;;6.10;99.90;;;;;;4952388;29;20103;-74
2022/01/23 16:01:50;;;;;;;3.78;1.45;;;7.10;99.90;;;;;;4949206;29;20118;-76
2022/01/23 16:04:18;;;;;;;4.47;1.48;;;6.70;99.90;;;;;;4949450;29;20047;-75
2022/01/23 16:06:44;;;;;;;3.67;1.50;;;6.10;99.90;;;;;;4953012;29;20043;-76
2022/01/23 16:09:10;;;;;;;3.22;1.30;;;7.40;99.90;;;;;;4925510;29;20051;-75
2022/01/23 16:11:36;;;;;;;3.10;1.40;;;7.20;99.90;;;;;;4937795;29;20047;-73
2022/01/23 16:14:02;;;;;;;3.22;1.23;;;7.10;99.90;;;;;;4935349;29;20036;-77
2022/01/23 16:16:28;;;;;;;4.90;1.63;;;6.60;99.90;;;;;;4915152;29;20123;-73
2022/01/23 16:18:56;;;;;;;4.32;1.48;;;7.40;99.90;;;;;;4930999;29;20040;-74
2022/01/23 16:21:23;;;;;;;4.45;1.75;;;7.30;99.90;;;;;;4934517;29;20071;-73
2022/01/23 16:23:49;;;;;;;4.60;1.63;;;6.10;99.90;;;;;;4934113;29;20412;-74
2022/01/23 16:26:16;;;;;;;3.30;1.48;;;6.70;99.90;;;;;;4934851;29;20043;-72
2022/01/23 16:28:43;;;;;;;4.20;1.65;;;7.10;99.90;;;;;;4936159;29;20046;-72
2022/01/23 16:31:10;;;;;;;4.40;1.83;;;6.10;99.90;;;;;;4923185;29;20063;-69
2022/01/23 16:33:36;;;;;;;5.65;1.77;;;6.10;99.90;;;;;;4943254;29;20039;-70